»·PEaware :: N1183U KBUR-KTOA

N1183U :: KBUR-KTOA

FLIGHT INFORMATION

Flight Status: Arrived
Operator: Privately registered:
United States
More flights under this callsign
Pilot: Tim T. (27192)
Aircraft: CESSNA 172 SKYHAWK
(C172)
More flights by this aircraft type
Origin: KBUR Bob Hope-Burbank
United States
Destination: KTOA Zamperini
United States
More flights between these airports :: More routes between these airports
Route: +ELMOO9 ELMOO V186 ADAMM V394 SLI
File this flight plan on PilotEdge
Remarks: IMC Conditions
Altitude:
(Current/Filed)
5,000ft
Speed:
(Current/Filed)
105kts
Departed: 18-Dec-19 03:57 PM
Arrived: 18-Dec-19 04:37 PM
Distance/Time
Traveled:
24nm/0:40
Distance/Time
To Go:
Arrived

Flight Plot

Page will automatically refresh every two minutes.

Flight plan parsing failed; only flown route is shown


Map Options




Map Legend


Flown Route
Filed Route
Departure Airport
Arrival Airport
Navaid (VOR, NDB)
Fix

Horizontal Profiles

Position Reports

Time Latitude Longitude Heading Altitude Ground
Speed
18-Dec-19 15:10 34.013858 -118.455688 119 122ft 0kts
18-Dec-19 15:11 34.013858 -118.455688 119 122ft 0kts
18-Dec-19 15:12 34.013858 -118.455688 119 122ft 0kts
18-Dec-19 15:13 34.013858 -118.455688 119 122ft 0kts
18-Dec-19 15:14 34.013858 -118.455688 119 122ft 0kts
18-Dec-19 15:15 34.013858 -118.455688 119 122ft 0kts
18-Dec-19 15:16 34.013858 -118.455688 119 122ft 0kts
18-Dec-19 15:17 34.013858 -118.455688 119 122ft 0kts
18-Dec-19 15:18 34.014007 -118.454956 24 124ft 10kts
18-Dec-19 15:19 34.016361 -118.452478 82 139ft 0kts
18-Dec-19 15:20 34.016361 -118.452478 82 139ft 0kts
18-Dec-19 15:21 34.196334 -118.367556 358 723ft 0kts
18-Dec-19 15:22 34.196334 -118.367556 358 723ft 0kts
18-Dec-19 15:23 34.196334 -118.367556 358 723ft 0kts
18-Dec-19 15:24 34.196334 -118.367556 358 723ft 0kts
18-Dec-19 15:25 34.196334 -118.367556 358 723ft 0kts
18-Dec-19 15:26 34.196334 -118.367556 358 723ft 0kts
18-Dec-19 15:27 34.196334 -118.367556 358 723ft 0kts
18-Dec-19 15:28 34.196334 -118.367556 358 723ft 0kts
18-Dec-19 15:29 34.196334 -118.367556 358 723ft 0kts
18-Dec-19 15:30 34.196334 -118.367556 358 723ft 0kts
18-Dec-19 15:31 34.196334 -118.367556 358 723ft 0kts
18-Dec-19 15:32 34.196334 -118.367556 358 723ft 0kts
18-Dec-19 15:33 34.196334 -118.367556 358 723ft 0kts
18-Dec-19 15:34 34.196334 -118.367556 358 723ft 0kts
18-Dec-19 15:35 34.196334 -118.367556 358 723ft 0kts
18-Dec-19 15:36 34.196334 -118.367556 358 723ft 0kts
18-Dec-19 15:37 34.196334 -118.367556 358 723ft 0kts
18-Dec-19 15:38 34.196334 -118.367556 358 723ft 0kts
18-Dec-19 15:39 34.196334 -118.367556 358 723ft 0kts
18-Dec-19 15:40 34.196334 -118.367556 358 723ft 0kts
18-Dec-19 15:41 34.196334 -118.367556 358 723ft 0kts
18-Dec-19 15:42 34.196334 -118.367556 358 723ft 0kts
18-Dec-19 15:44 34.196334 -118.367556 358 723ft 0kts
18-Dec-19 15:45 34.196334 -118.367556 358 723ft 0kts
18-Dec-19 15:46 34.196334 -118.367556 358 723ft 0kts
18-Dec-19 15:47 34.196334 -118.367556 358 723ft 0kts
18-Dec-19 15:48 34.196334 -118.367556 358 723ft 0kts
18-Dec-19 15:49 34.196334 -118.367556 358 723ft 0kts
18-Dec-19 15:50 34.196552 -118.367771 9 723ft 0kts
18-Dec-19 15:51 34.196552 -118.367771 9 723ft 0kts
18-Dec-19 15:52 34.196552 -118.367771 9 723ft 0kts
18-Dec-19 15:53 34.196938 -118.368184 271 725ft 8kts
18-Dec-19 15:54 34.197031 -118.368968 314 726ft 0kts
18-Dec-19 15:55 34.197031 -118.368968 314 726ft 0kts
18-Dec-19 15:56 34.197031 -118.368968 314 726ft 0kts
18-Dec-19 15:57 34.197890 -118.366208 90 726ft 53kts
18-Dec-19 15:58 34.192306 -118.345234 135 1552ft 78kts
18-Dec-19 15:59 34.176187 -118.327556 117 2484ft 79kts
18-Dec-19 16:00 34.167886 -118.300903 110 3297ft 88kts
18-Dec-19 16:01 34.158111 -118.273269 109 4090ft 91kts
18-Dec-19 16:02 34.150708 -118.243835 106 4790ft 93kts
18-Dec-19 16:03 34.140845 -118.212057 110 4866ft 114kts
18-Dec-19 16:04 34.129958 -118.175937 108 4864ft 116kts
18-Dec-19 16:04 34.121365 -118.147600 108 4819ft 116kts
18-Dec-19 16:06 34.111135 -118.105613 103 4845ft 114kts
18-Dec-19 16:06 34.103319 -118.075282 107 4913ft 110kts
18-Dec-19 16:07 34.092395 -118.039962 108 4977ft 112kts
18-Dec-19 16:09 34.083167 -118.001347 103 5037ft 111kts
18-Dec-19 16:09 34.078168 -117.981560 107 4935ft 120kts
18-Dec-19 16:10 34.065776 -117.943940 111 4832ft 117kts
18-Dec-19 16:11 34.052919 -117.908585 108 4889ft 114kts
18-Dec-19 16:12 34.038185 -117.873699 123 4810ft 118kts
18-Dec-19 16:13 34.022449 -117.840979 113 4797ft 111kts
18-Dec-19 16:14 34.000352 -117.826782 202 4287ft 114kts
18-Dec-19 16:15 33.971147 -117.842307 200 3884ft 119kts
18-Dec-19 16:16 33.941949 -117.856481 199 3840ft 109kts
18-Dec-19 16:17 33.912641 -117.870748 200 3987ft 113kts
18-Dec-19 16:18 33.883335 -117.884660 199 3888ft 114kts
18-Dec-19 16:19 33.853937 -117.896455 197 3828ft 112kts
18-Dec-19 16:20 33.825469 -117.910275 201 3890ft 111kts
18-Dec-19 16:21 33.809439 -117.939217 255 3893ft 107kts
18-Dec-19 16:22 33.802589 -117.974025 255 3433ft 107kts
18-Dec-19 16:23 33.794285 -118.009133 256 2929ft 110kts
18-Dec-19 16:24 33.788357 -118.045151 254 2440ft 109kts
18-Dec-19 16:25 33.776308 -118.075778 209 1982ft 105kts
18-Dec-19 16:26 33.754139 -118.095747 213 1944ft 87kts
18-Dec-19 16:27 33.734779 -118.116548 226 2047ft 97kts
18-Dec-19 16:28 33.721221 -118.144571 223 2208ft 99kts
18-Dec-19 16:29 33.701213 -118.167267 225 2030ft 99kts
18-Dec-19 16:30 33.708049 -118.195550 308 1895ft 98kts
18-Dec-19 16:31 33.726347 -118.220150 314 1911ft 98kts
18-Dec-19 16:32 33.743875 -118.245310 294 1827ft 100kts
18-Dec-19 16:33 33.757091 -118.272689 309 1664ft 97kts
18-Dec-19 16:34 33.775741 -118.297936 311 1091ft 106kts
18-Dec-19 16:35 33.794126 -118.324185 311 365ft 97kts
18-Dec-19 16:36 33.804425 -118.340230 313 93ft 25kts
18-Dec-19 16:37 33.805939 -118.344012 292 90ft 0kts
18-Dec-19 16:38 33.805123 -118.345766 217 92ft 10kts
18-Dec-19 16:39 33.804533 -118.346110 186 97ft 0kts

Navigation Log

Ident Type
Flight plan parsing failed, navigation log unavailable